sensor_id;sensor_type;location;lat;lon;timestamp;pressure;altitude;pressure_sealevel;temperature;humidity
41254;BME280;26987;59.928;30.306;2022-08-30T00:01:10;101128.75;;;15.18;100.00
41254;BME280;26987;59.928;30.306;2022-08-30T00:03:40;101119.59;;;15.19;100.00
41254;BME280;26987;59.928;30.306;2022-08-30T00:06:08;101112.88;;;15.10;100.00
41254;BME280;26987;59.928;30.306;2022-08-30T00:08:37;101119.09;;;15.10;100.00
41254;BME280;26987;59.928;30.306;2022-08-30T00:11:09;101126.38;;;15.10;100.00
41254;BME280;26987;59.928;30.306;2022-08-30T00:13:41;101117.66;;;15.08;100.00
41254;BME280;26987;59.928;30.306;2022-08-30T00:16:11;101117.09;;;15.06;100.00
41254;BME280;26987;59.928;30.306;2022-08-30T00:18:40;101112.47;;;15.06;100.00
41254;BME280;26987;59.928;30.306;2022-08-30T00:21:09;101118.72;;;15.07;100.00
41254;BME280;26987;59.928;30.306;2022-08-30T00:23:38;101118.34;;;15.03;100.00
41254;BME280;26987;59.928;30.306;2022-08-30T00:26:06;101118.13;;;15.05;100.00
41254;BME280;26987;59.928;30.306;2022-08-30T00:28:35;101120.81;;;15.05;100.00
41254;BME280;26987;59.928;30.306;2022-08-30T00:31:05;101128.91;;;15.05;100.00
41254;BME280;26987;59.928;30.306;2022-08-30T00:33:33;101120.47;;;15.01;100.00
41254;BME280;26987;59.928;30.306;2022-08-30T00:36:01;101119.06;;;14.98;100.00
41254;BME280;26987;59.928;30.306;2022-08-30T00:38:30;101117.38;;;14.97;100.00
41254;BME280;26987;59.928;30.306;2022-08-30T00:40:58;101114.69;;;14.97;100.00
41254;BME280;26987;59.928;30.306;2022-08-30T00:43:29;101120.69;;;14.99;100.00
41254;BME280;26987;59.928;30.306;2022-08-30T00:45:57;101124.81;;;15.02;100.00
41254;BME280;26987;59.928;30.306;2022-08-30T00:48:26;101125.63;;;15.03;100.00
41254;BME280;26987;59.928;30.306;2022-08-30T00:50:58;101123.50;;;15.05;100.00
41254;BME280;26987;59.928;30.306;2022-08-30T00:53:30;101120.81;;;15.05;100.00
41254;BME280;26987;59.928;30.306;2022-08-30T00:56:00;101124.81;;;15.02;100.00
41254;BME280;26987;59.928;30.306;2022-08-30T00:58:32;101123.97;;;15.01;100.00
41254;BME280;26987;59.928;30.306;2022-08-30T01:01:03;101119.28;;;14.97;100.00
41254;BME280;26987;59.928;30.306;2022-08-30T01:03:36;101126.22;;;15.05;100.00
41254;BME280;26987;59.928;30.306;2022-08-30T01:06:05;101127.03;;;15.05;100.00
41254;BME280;26987;59.928;30.306;2022-08-30T01:08:34;101133.88;;;15.08;100.00
41254;BME280;26987;59.928;30.306;2022-08-30T01:11:03;101121.41;;;15.07;100.00
41254;BME280;26987;59.928;30.306;2022-08-30T01:13:31;101129.69;;;15.12;100.00
41254;BME280;26987;59.928;30.306;2022-08-30T01:16:01;101124.06;;;15.13;100.00
41254;BME280;26987;59.928;30.306;2022-08-30T01:18:29;101132.50;;;15.17;100.00
41254;BME280;26987;59.928;30.306;2022-08-30T01:21:04;101133.69;;;15.21;100.00
41254;BME280;26987;59.928;30.306;2022-08-30T01:23:39;101135.59;;;15.21;100.00
41254;BME280;26987;59.928;30.306;2022-08-30T01:26:09;101123.94;;;15.20;100.00
41254;BME280;26987;59.928;30.306;2022-08-30T01:28:38;101145.31;;;15.22;100.00
41254;BME280;26987;59.928;30.306;2022-08-30T01:31:06;101130.63;;;15.18;100.00
41254;BME280;26987;59.928;30.306;2022-08-30T01:33:35;101130.19;;;15.21;100.00
41254;BME280;26987;59.928;30.306;2022-08-30T01:36:05;101126.41;;;15.22;100.00
41254;BME280;26987;59.928;30.306;2022-08-30T01:38:39;101129.50;;;15.25;100.00
41254;BME280;26987;59.928;30.306;2022-08-30T01:41:11;101128.91;;;15.23;100.00
41254;BME280;26987;59.928;30.306;2022-08-30T01:43:40;101134.06;;;15.25;100.00
41254;BME280;26987;59.928;30.306;2022-08-30T01:46:08;101121.47;;;15.19;100.00
41254;BME280;26987;59.928;30.306;2022-08-30T01:48:38;101120.78;;;15.23;100.00
41254;BME280;26987;59.928;30.306;2022-08-30T01:51:09;101121.63;;;15.24;100.00
41254;BME280;26987;59.928;30.306;2022-08-30T01:53:39;101125.34;;;15.23;100.00
41254;BME280;26987;59.928;30.306;2022-08-30T01:56:08;101121.25;;;15.20;100.00
41254;BME280;26987;59.928;30.306;2022-08-30T01:58:37;101131.22;;;15.20;100.00
41254;BME280;26987;59.928;30.306;2022-08-30T02:01:10;101122.53;;;15.18;100.00
41254;BME280;26987;59.928;30.306;2022-08-30T02:03:39;101125.06;;;15.12;100.00
41254;BME280;26987;59.928;30.306;2022-08-30T02:06:10;101117.75;;;15.01;100.00
41254;BME280;26987;59.928;30.306;2022-08-30T02:08:40;101119.84;;;14.99;100.00
41254;BME280;26987;59.928;30.306;2022-08-30T02:11:09;101118.22;;;14.98;100.00
41254;BME280;26987;59.928;30.306;2022-08-30T02:13:39;101116.34;;;14.98;100.00
41254;BME280;26987;59.928;30.306;2022-08-30T02:16:11;101120.31;;;14.96;100.00
41254;BME280;26987;59.928;30.306;2022-08-30T02:18:40;101107.19;;;14.81;100.00
41254;BME280;26987;59.928;30.306;2022-08-30T02:21:09;101120.75;;;14.93;100.00
41254;BME280;26987;59.928;30.306;2022-08-30T02:23:37;101113.94;;;14.90;100.00
41254;BME280;26987;59.928;30.306;2022-08-30T02:26:06;101120.41;;;14.89;100.00
41254;BME280;26987;59.928;30.306;2022-08-30T02:28:35;101117.19;;;14.80;100.00
41254;BME280;26987;59.928;30.306;2022-08-30T02:31:03;101126.69;;;14.83;100.00
41254;BME280;26987;59.928;30.306;2022-08-30T02:33:31;101114.50;;;14.80;100.00
41254;BME280;26987;59.928;30.306;2022-08-30T02:35:59;101111.78;;;14.80;100.00
41254;BME280;26987;59.928;30.306;2022-08-30T02:38:27;101119.22;;;14.85;100.00
41254;BME280;26987;59.928;30.306;2022-08-30T02:40:55;101121.06;;;14.84;100.00
41254;BME280;26987;59.928;30.306;2022-08-30T02:43:24;101137.06;;;14.86;100.00
41254;BME280;26987;59.928;30.306;2022-08-30T02:45:52;101138.56;;;14.82;100.00
41254;BME280;26987;59.928;30.306;2022-08-30T02:48:20;101142.66;;;14.84;100.00
41254;BME280;26987;59.928;30.306;2022-08-30T02:50:50;101137.72;;;14.81;100.00
41254;BME280;26987;59.928;30.306;2022-08-30T02:53:19;101142.28;;;14.81;100.00
41254;BME280;26987;59.928;30.306;2022-08-30T02:55:48;101113.94;;;14.71;100.00
41254;BME280;26987;59.928;30.306;2022-08-30T02:58:16;101124.88;;;14.76;100.00
41254;BME280;26987;59.928;30.306;2022-08-30T03:00:46;101120.13;;;14.79;100.00
41254;BME280;26987;59.928;30.306;2022-08-30T03:03:13;101114.53;;;14.73;100.00
41254;BME280;26987;59.928;30.306;2022-08-30T03:05:41;101106.28;;;14.68;100.00
41254;BME280;26987;59.928;30.306;2022-08-30T03:08:09;101108.16;;;14.68;100.00
41254;BME280;26987;59.928;30.306;2022-08-30T03:10:37;101113.16;;;14.64;100.00
41254;BME280;26987;59.928;30.306;2022-08-30T03:13:05;101121.50;;;14.62;100.00
41254;BME280;26987;59.928;30.306;2022-08-30T03:15:35;101129.81;;;14.61;100.00
41254;BME280;26987;59.928;30.306;2022-08-30T03:18:06;101131.94;;;14.59;100.00
41254;BME280;26987;59.928;30.306;2022-08-30T03:20:35;101135.19;;;14.61;100.00
41254;BME280;26987;59.928;30.306;2022-08-30T03:23:04;101137.09;;;14.60;100.00
41254;BME280;26987;59.928;30.306;2022-08-30T03:25:32;101132.66;;;14.66;100.00
41254;BME280;26987;59.928;30.306;2022-08-30T03:28:00;101137.63;;;14.69;100.00
41254;BME280;26987;59.928;30.306;2022-08-30T03:30:28;101133.88;;;14.70;100.00
41254;BME280;26987;59.928;30.306;2022-08-30T03:32:56;101139.47;;;14.69;100.00
41254;BME280;26987;59.928;30.306;2022-08-30T03:35:26;101128.91;;;14.67;100.00
41254;BME280;26987;59.928;30.306;2022-08-30T03:37:56;101140.38;;;14.62;100.00
41254;BME280;26987;59.928;30.306;2022-08-30T03:40:24;101147.06;;;14.60;100.00
41254;BME280;26987;59.928;30.306;2022-08-30T03:42:52;101142.31;;;14.55;100.00
41254;BME280;26987;59.928;30.306;2022-08-30T03:45:20;101155.00;;;14.55;100.00
41254;BME280;26987;59.928;30.306;2022-08-30T03:47:48;101148.38;;;14.50;100.00
41254;BME280;26987;59.928;30.306;2022-08-30T03:50:16;101149.44;;;14.49;100.00
41254;BME280;26987;59.928;30.306;2022-08-30T03:52:46;101170.19;;;14.49;100.00
41254;BME280;26987;59.928;30.306;2022-08-30T03:55:14;101156.16;;;14.40;100.00
41254;BME280;26987;59.928;30.306;2022-08-30T03:57:42;101146.66;;;14.37;100.00
41254;BME280;26987;59.928;30.306;2022-08-30T04:00:11;101150.78;;;14.40;100.00
41254;BME280;26987;59.928;30.306;2022-08-30T04:02:40;101158.66;;;14.42;100.00
41254;BME280;26987;59.928;30.306;2022-08-30T04:05:09;101158.88;;;14.40;100.00
41254;BME280;26987;59.928;30.306;2022-08-30T04:07:37;101165.53;;;14.37;100.00
41254;BME280;26987;59.928;30.306;2022-08-30T04:10:08;101156.03;;;14.35;100.00
41254;BME280;26987;59.928;30.306;2022-08-30T04:12:37;101163.94;;;14.30;100.00
41254;BME280;26987;59.928;30.306;2022-08-30T04:15:05;101174.50;;;14.31;100.00
41254;BME280;26987;59.928;30.306;2022-08-30T04:17:35;101171.59;;;14.33;100.00
41254;BME280;26987;59.928;30.306;2022-08-30T04:20:04;101162.13;;;14.23;100.00
41254;BME280;26987;59.928;30.306;2022-08-30T04:22:32;101173.31;;;14.27;100.00
41254;BME280;26987;59.928;30.306;2022-08-30T04:25:02;101176.84;;;14.28;100.00
41254;BME280;26987;59.928;30.306;2022-08-30T04:27:31;101181.56;;;14.32;100.00
41254;BME280;26987;59.928;30.306;2022-08-30T04:29:59;101181.56;;;14.32;100.00
41254;BME280;26987;59.928;30.306;2022-08-30T04:32:28;101184.88;;;14.34;100.00
41254;BME280;26987;59.928;30.306;2022-08-30T04:34:56;101193.19;;;14.33;100.00
41254;BME280;26987;59.928;30.306;2022-08-30T04:37:25;101182.16;;;14.34;100.00
41254;BME280;26987;59.928;30.306;2022-08-30T04:39:54;101182.78;;;14.36;100.00
41254;BME280;26987;59.928;30.306;2022-08-30T04:42:22;101180.66;;;14.38;100.00
41254;BME280;26987;59.928;30.306;2022-08-30T04:44:52;101164.34;;;14.33;100.00
41254;BME280;26987;59.928;30.306;2022-08-30T04:47:20;101168.91;;;14.33;100.00
41254;BME280;26987;59.928;30.306;2022-08-30T04:49:48;101168.91;;;14.33;100.00
41254;BME280;26987;59.928;30.306;2022-08-30T04:52:16;101164.94;;;14.35;100.00
41254;BME280;26987;59.928;30.306;2022-08-30T04:54:44;101170.09;;;14.37;100.00
41254;BME280;26987;59.928;30.306;2022-08-30T04:57:12;101167.19;;;14.38;100.00
41254;BME280;26987;59.928;30.306;2022-08-30T04:59:40;101169.66;;;14.40;100.00
41254;BME280;26987;59.928;30.306;2022-08-30T05:02:09;101165.94;;;14.41;100.00
41254;BME280;26987;59.928;30.306;2022-08-30T05:04:37;101161.78;;;14.38;100.00
41254;BME280;26987;59.928;30.306;2022-08-30T05:07:25;101164.56;;;14.32;100.00
41254;BME280;26987;59.928;30.306;2022-08-30T05:09:53;101174.28;;;14.33;100.00
41254;BME280;26987;59.928;30.306;2022-08-30T05:12:22;101167.09;;;14.27;100.00
41254;BME280;26987;59.928;30.306;2022-08-30T05:14:50;101165.22;;;14.27;100.00
41254;BME280;26987;59.928;30.306;2022-08-30T05:17:19;101163.38;;;14.28;100.00
41254;BME280;26987;59.928;30.306;2022-08-30T05:19:47;101155.84;;;14.30;100.00
41254;BME280;26987;59.928;30.306;2022-08-30T05:22:15;101161.25;;;14.30;100.00
41254;BME280;26987;59.928;30.306;2022-08-30T05:24:43;101138.47;;;14.25;100.00
41254;BME280;26987;59.928;30.306;2022-08-30T05:27:11;101172.66;;;14.32;100.00
41254;BME280;26987;59.928;30.306;2022-08-30T05:29:39;101152.56;;;14.28;100.00
41254;BME280;26987;59.928;30.306;2022-08-30T05:32:07;101157.06;;;14.34;100.00
41254;BME280;26987;59.928;30.306;2022-08-30T05:34:37;101168.03;;;14.39;100.00
41254;BME280;26987;59.928;30.306;2022-08-30T05:37:04;101146.25;;;14.34;100.00
41254;BME280;26987;59.928;30.306;2022-08-30T05:39:32;101148.75;;;14.35;100.00
41254;BME280;26987;59.928;30.306;2022-08-30T05:42:00;101148.97;;;14.34;100.00
41254;BME280;26987;59.928;30.306;2022-08-30T05:44:28;101149.34;;;14.37;100.00
41254;BME280;26987;59.928;30.306;2022-08-30T05:46:56;101137.28;;;14.40;100.00
41254;BME280;26987;59.928;30.306;2022-08-30T05:49:24;101149.44;;;14.49;100.00
41254;BME280;26987;59.928;30.306;2022-08-30T05:51:54;101157.31;;;14.51;100.00
41254;BME280;26987;59.928;30.306;2022-08-30T05:54:22;101146.03;;;14.35;100.00
41254;BME280;26987;59.928;30.306;2022-08-30T05:56:50;101161.44;;;14.35;100.00
41254;BME280;26987;59.928;30.306;2022-08-30T05:59:18;101135.13;;;14.30;100.00
41254;BME280;26987;59.928;30.306;2022-08-30T06:01:46;101156.69;;;14.30;100.00
41254;BME280;26987;59.928;30.306;2022-08-30T06:04:15;101145.72;;;14.25;100.00
41254;BME280;26987;59.928;30.306;2022-08-30T06:06:43;101150.53;;;14.23;100.00
41254;BME280;26987;59.928;30.306;2022-08-30T06:09:13;101145.72;;;14.25;100.00
41254;BME280;26987;59.928;30.306;2022-08-30T06:11:42;101150.91;;;14.27;100.00
41254;BME280;26987;59.928;30.306;2022-08-30T06:14:10;101147.53;;;14.31;100.00
41254;BME280;26987;59.928;30.306;2022-08-30T06:16:39;101163.28;;;14.34;100.00
41254;BME280;26987;59.928;30.306;2022-08-30T06:19:09;101147.63;;;14.24;100.00
41254;BME280;26987;59.928;30.306;2022-08-30T06:21:38;101157.53;;;14.31;100.00
41254;BME280;26987;59.928;30.306;2022-08-30T06:24:08;101154.22;;;14.29;100.00
41254;BME280;26987;59.928;30.306;2022-08-30T06:26:39;101154.44;;;14.27;100.00
41254;BME280;26987;59.928;30.306;2022-08-30T06:29:08;101150.03;;;14.33;100.00
41254;BME280;26987;59.928;30.306;2022-08-30T06:31:37;101158.34;;;14.31;100.00
41254;BME280;26987;59.928;30.306;2022-08-30T06:34:05;101160.66;;;14.28;100.00
41254;BME280;26987;59.928;30.306;2022-08-30T06:36:33;101160.44;;;14.29;100.00
41254;BME280;26987;59.928;30.306;2022-08-30T06:39:02;101146.78;;;14.24;100.00
41254;BME280;26987;59.928;30.306;2022-08-30T06:41:32;101163.72;;;14.31;100.00
41254;BME280;26987;59.928;30.306;2022-08-30T06:44:03;101159.16;;;14.32;100.00
41254;BME280;26987;59.928;30.306;2022-08-30T06:46:34;101151.53;;;14.29;100.00
41254;BME280;26987;59.928;30.306;2022-08-30T06:49:04;101145.06;;;14.30;100.00
41254;BME280;26987;59.928;30.306;2022-08-30T06:51:34;101152.72;;;14.33;100.00
41254;BME280;26987;59.928;30.306;2022-08-30T06:54:07;101153.34;;;14.35;100.00
41254;BME280;26987;59.928;30.306;2022-08-30T06:56:36;101158.56;;;14.30;100.00
41254;BME280;26987;59.928;30.306;2022-08-30T06:59:05;101159.59;;;14.29;100.00
41254;BME280;26987;59.928;30.306;2022-08-30T07:01:33;101149.25;;;14.25;100.00
41254;BME280;26987;59.928;30.306;2022-08-30T07:04:02;101145.50;;;14.27;100.00
41254;BME280;26987;59.928;30.306;2022-08-30T07:06:31;101146.25;;;14.34;100.00
41254;BME280;26987;59.928;30.306;2022-08-30T07:08:59;101156.03;;;14.35;100.00
41254;BME280;26987;59.928;30.306;2022-08-30T07:11:30;101151.22;;;14.37;100.00
41254;BME280;26987;59.928;30.306;2022-08-30T07:13:59;101162.84;;;14.37;100.00
41254;BME280;26987;59.928;30.306;2022-08-30T07:16:29;101159.84;;;14.46;100.00
41254;BME280;26987;59.928;30.306;2022-08-30T07:18:58;101161.88;;;14.50;100.00
41254;BME280;26987;59.928;30.306;2022-08-30T07:21:27;101166.47;;;14.50;100.00
41254;BME280;26987;59.928;30.306;2022-08-30T07:23:56;101152.44;;;14.41;100.00
41254;BME280;26987;59.928;30.306;2022-08-30T07:26:27;101161.75;;;14.45;100.00
41254;BME280;26987;59.928;30.306;2022-08-30T07:28:56;101159.19;;;14.50;100.00
41254;BME280;26987;59.928;30.306;2022-08-30T07:31:25;101149.44;;;14.49;100.00
41254;BME280;26987;59.928;30.306;2022-08-30T07:33:54;101151.91;;;14.51;100.00
41254;BME280;26987;59.928;30.306;2022-08-30T07:36:23;101150.94;;;14.45;100.00
41254;BME280;26987;59.928;30.306;2022-08-30T07:38:51;101153.19;;;14.48;100.00
41254;BME280;26987;59.928;30.306;2022-08-30T07:41:22;101162.78;;;14.44;100.00
41254;BME280;26987;59.928;30.306;2022-08-30T07:43:51;101158.28;;;14.38;100.00
41254;BME280;26987;59.928;30.306;2022-08-30T07:46:19;101164.13;;;14.35;100.00
41254;BME280;26987;59.928;30.306;2022-08-30T07:48:48;101172.22;;;14.35;100.00
41254;BME280;26987;59.928;30.306;2022-08-30T07:51:20;101159.59;;;14.29;100.00
41254;BME280;26987;59.928;30.306;2022-08-30T07:53:48;101160.06;;;14.25;100.00
41254;BME280;26987;59.928;30.306;2022-08-30T07:56:16;101169.56;;;14.28;100.00
41254;BME280;26987;59.928;30.306;2022-08-30T07:58:44;101173.25;;;14.34;100.00
41254;BME280;26987;59.928;30.306;2022-08-30T08:01:13;101174.69;;;14.36;100.00
41254;BME280;26987;59.928;30.306;2022-08-30T08:03:42;101166.16;;;14.40;99.98
41254;BME280;26987;59.928;30.306;2022-08-30T08:06:12;101163.00;;;14.43;99.92
41254;BME280;26987;59.928;30.306;2022-08-30T08:08:42;101164.56;;;14.50;99.47
41254;BME280;26987;59.928;30.306;2022-08-30T08:11:13;101164.97;;;14.54;98.96
41254;BME280;26987;59.928;30.306;2022-08-30T08:13:41;101169.53;;;14.54;99.16
41254;BME280;26987;59.928;30.306;2022-08-30T08:16:10;101165.94;;;14.60;99.25
41254;BME280;26987;59.928;30.306;2022-08-30T08:18:38;101164.88;;;14.61;98.40
41254;BME280;26987;59.928;30.306;2022-08-30T08:21:06;101170.50;;;14.59;98.37
41254;BME280;26987;59.928;30.306;2022-08-30T08:23:34;101176.28;;;14.63;97.42
41254;BME280;26987;59.928;30.306;2022-08-30T08:26:04;101182.53;;;14.63;97.37
41254;BME280;26987;59.928;30.306;2022-08-30T08:28:32;101199.25;;;14.72;96.64
41254;BME280;26987;59.928;30.306;2022-08-30T08:31:00;101172.69;;;14.69;96.41
41254;BME280;26987;59.928;30.306;2022-08-30T08:33:28;101185.53;;;14.74;95.56
41254;BME280;26987;59.928;30.306;2022-08-30T08:35:56;101184.69;;;14.73;95.48
41254;BME280;26987;59.928;30.306;2022-08-30T08:38:24;101186.94;;;14.76;95.22
41254;BME280;26987;59.928;30.306;2022-08-30T08:41:00;101184.88;;;14.79;95.25
41254;BME280;26987;59.928;30.306;2022-08-30T08:43:33;101194.78;;;14.85;95.03
41254;BME280;26987;59.928;30.306;2022-08-30T08:46:05;101192.44;;;14.88;94.45
41254;BME280;26987;59.928;30.306;2022-08-30T08:48:40;101196.00;;;14.89;94.24
41254;BME280;26987;59.928;30.306;2022-08-30T08:51:10;101203.03;;;14.90;94.44
41254;BME280;26987;59.928;30.306;2022-08-30T08:53:59;101190.59;;;14.89;93.52
41254;BME280;26987;59.928;30.306;2022-08-30T08:56:28;101190.81;;;14.87;93.40
41254;BME280;26987;59.928;30.306;2022-08-30T08:58:57;101214.28;;;14.87;93.58
41254;BME280;26987;59.928;30.306;2022-08-30T09:01:28;101208.06;;;14.86;92.60
41254;BME280;26987;59.928;30.306;2022-08-30T09:03:57;101189.47;;;14.78;91.96
41254;BME280;26987;59.928;30.306;2022-08-30T09:06:40;101195.69;;;14.79;92.20
41254;BME280;26987;59.928;30.306;2022-08-30T09:09:10;101200.25;;;14.78;90.63
41254;BME280;26987;59.928;30.306;2022-08-30T09:11:39;101197.75;;;14.76;90.43
41254;BME280;26987;59.928;30.306;2022-08-30T09:14:13;101202.28;;;14.83;89.69
41254;BME280;26987;59.928;30.306;2022-08-30T09:16:56;101198.53;;;14.84;89.12
41254;BME280;26987;59.928;30.306;2022-08-30T09:19:28;101202.66;;;14.86;88.88
41254;BME280;26987;59.928;30.306;2022-08-30T09:21:57;101178.38;;;14.86;88.64
41254;BME280;26987;59.928;30.306;2022-08-30T09:24:25;101199.97;;;14.86;88.30
41254;BME280;26987;59.928;30.306;2022-08-30T09:26:53;101183.16;;;14.84;88.60
41254;BME280;26987;59.928;30.306;2022-08-30T09:29:22;101189.41;;;14.85;89.03
41254;BME280;26987;59.928;30.306;2022-08-30T09:31:51;101196.44;;;14.86;89.50
41254;BME280;26987;59.928;30.306;2022-08-30T09:34:21;101186.09;;;14.83;90.25
41254;BME280;26987;59.928;30.306;2022-08-30T09:36:52;101184.44;;;14.82;90.43
41254;BME280;26987;59.928;30.306;2022-08-30T09:39:26;101186.84;;;14.90;90.26
41254;BME280;26987;59.928;30.306;2022-08-30T09:42:11;101188.31;;;15.05;89.14
41254;BME280;26987;59.928;30.306;2022-08-30T09:44:40;101192.16;;;14.97;88.72
41254;BME280;26987;59.928;30.306;2022-08-30T09:47:18;101182.63;;;14.94;88.53
41254;BME280;26987;59.928;30.306;2022-08-30T09:49:46;101188.63;;;14.96;88.24
41254;BME280;26987;59.928;30.306;2022-08-30T09:52:30;101190.88;;;14.99;88.32
41254;BME280;26987;59.928;30.306;2022-08-30T09:55:14;101188.63;;;14.96;88.49
41254;BME280;26987;59.928;30.306;2022-08-30T09:57:50;101192.41;;;14.95;88.81
41254;BME280;26987;59.928;30.306;2022-08-30T10:00:27;101187.22;;;14.94;87.89
41254;BME280;26987;59.928;30.306;2022-08-30T10:03:21;101175.28;;;15.01;87.77
41254;BME280;26987;59.928;30.306;2022-08-30T10:05:57;101187.75;;;15.03;87.23
41254;BME280;26987;59.928;30.306;2022-08-30T10:08:36;101196.59;;;15.10;86.78
41254;BME280;26987;59.928;30.306;2022-08-30T10:11:12;101193.28;;;15.08;86.23
41254;BME280;26987;59.928;30.306;2022-08-30T10:16:57;101194.09;;;15.08;85.47
41254;BME280;26987;59.928;30.306;2022-08-30T10:19:40;101185.03;;;15.03;84.62
41254;BME280;26987;59.928;30.306;2022-08-30T10:22:16;101194.16;;;15.01;84.58
41254;BME280;26987;59.928;30.306;2022-08-30T10:24:49;101196.66;;;15.03;84.48
41254;BME280;26987;59.928;30.306;2022-08-30T10:27:21;101189.31;;;15.10;84.01
41254;BME280;26987;59.928;30.306;2022-08-30T10:29:54;101183.06;;;15.10;83.75
41254;BME280;26987;59.928;30.306;2022-08-30T10:32:29;101191.19;;;15.10;82.89
41254;BME280;26987;59.928;30.306;2022-08-30T10:35:03;101183.53;;;15.07;81.58
41254;BME280;26987;59.928;30.306;2022-08-30T10:37:37;101183.69;;;15.12;81.44
41254;BME280;26987;59.928;30.306;2022-08-30T10:40:13;101180.59;;;15.08;80.28
41254;BME280;26987;59.928;30.306;2022-08-30T10:43:04;101180.28;;;15.17;79.91
41254;BME280;26987;59.928;30.306;2022-08-30T10:45:36;101186.50;;;15.17;79.32
41254;BME280;26987;59.928;30.306;2022-08-30T10:48:15;101184.78;;;15.23;79.01
41254;BME280;26987;59.928;30.306;2022-08-30T10:50:48;101185.00;;;15.21;79.03
41254;BME280;26987;59.928;30.306;2022-08-30T10:53:22;101176.91;;;15.21;78.92
41254;BME280;26987;59.928;30.306;2022-08-30T10:56:00;101185.16;;;15.26;78.88
41254;BME280;26987;59.928;30.306;2022-08-30T10:58:29;101187.25;;;15.24;79.38
41254;BME280;26987;59.928;30.306;2022-08-30T11:01:17;101178.13;;;15.25;80.12
41254;BME280;26987;59.928;30.306;2022-08-30T11:07:15;101176.56;;;15.18;85.20
41254;BME280;26987;59.928;30.306;2022-08-30T11:10:16;101174.06;;;15.16;86.38
41254;BME280;26987;59.928;30.306;2022-08-30T11:12:53;101164.47;;;15.01;87.89
41254;BME280;26987;59.928;30.306;2022-08-30T11:15:24;101165.97;;;14.97;88.17
41254;BME280;26987;59.928;30.306;2022-08-30T11:17:55;101173.78;;;14.87;88.89
41254;BME280;26987;59.928;30.306;2022-08-30T11:20:32;101171.97;;;14.81;89.19
41254;BME280;26987;59.928;30.306;2022-08-30T11:23:18;101169.69;;;14.78;89.70
41254;BME280;26987;59.928;30.306;2022-08-30T11:25:49;101163.41;;;14.65;90.29
41254;BME280;26987;59.928;30.306;2022-08-30T11:31:34;101146.91;;;14.73;89.61
41254;BME280;26987;59.928;30.306;2022-08-30T11:34:03;101147.44;;;14.63;89.28
41254;BME280;26987;59.928;30.306;2022-08-30T11:37:05;101149.84;;;14.72;88.94
41254;BME280;26987;59.928;30.306;2022-08-30T11:39:54;101140.44;;;14.74;88.81
41254;BME280;26987;59.928;30.306;2022-08-30T11:42:38;101142.94;;;14.76;88.48
41254;BME280;26987;59.928;30.306;2022-08-30T11:45:44;101145.16;;;14.86;87.76
41254;BME280;26987;59.928;30.306;2022-08-30T11:48:45;101146.47;;;14.76;87.25
41254;BME280;26987;59.928;30.306;2022-08-30T11:51:31;101157.56;;;14.68;87.19
41254;BME280;26987;59.928;30.306;2022-08-30T11:54:03;101136.94;;;14.74;86.66
41254;BME280;26987;59.928;30.306;2022-08-30T11:56:47;101133.94;;;14.63;87.39
41254;BME280;26987;59.928;30.306;2022-08-30T11:59:25;101137.16;;;14.54;87.33
41254;BME280;26987;59.928;30.306;2022-08-30T12:01:56;101134.31;;;14.48;86.99
41254;BME280;26987;59.928;30.306;2022-08-30T12:04:34;101136.13;;;14.55;87.10
41254;BME280;26987;59.928;30.306;2022-08-30T12:07:05;101114.47;;;14.43;86.33
41254;BME280;26987;59.928;30.306;2022-08-30T12:10:02;101126.22;;;14.67;86.12
41254;BME280;26987;59.928;30.306;2022-08-30T12:12:50;101119.78;;;14.68;85.83
41254;BME280;26987;59.928;30.306;2022-08-30T12:15:52;101127.75;;;14.82;84.77
41254;BME280;26987;59.928;30.306;2022-08-30T12:18:36;101129.75;;;14.68;84.93
41254;BME280;26987;59.928;30.306;2022-08-30T12:21:26;101133.28;;;14.68;85.24
41254;BME280;26987;59.928;30.306;2022-08-30T12:23:59;101122.63;;;14.55;85.68
41254;BME280;26987;59.928;30.306;2022-08-30T12:26:32;101121.56;;;14.56;85.97
41254;BME280;26987;59.928;30.306;2022-08-30T12:29:12;101112.59;;;14.62;85.63
41254;BME280;26987;59.928;30.306;2022-08-30T12:31:43;101116.63;;;14.53;85.56
41254;BME280;26987;59.928;30.306;2022-08-30T12:34:19;101102.06;;;14.54;85.34
41254;BME280;26987;59.928;30.306;2022-08-30T12:36:53;101102.16;;;14.47;85.71
41254;BME280;26987;59.928;30.306;2022-08-30T12:39:24;101104.47;;;14.43;85.48
41254;BME280;26987;59.928;30.306;2022-08-30T12:41:52;101115.44;;;14.48;85.58
41254;BME280;26987;59.928;30.306;2022-08-30T12:44:24;101100.97;;;14.43;86.01
41254;BME280;26987;59.928;30.306;2022-08-30T12:46:55;101093.09;;;14.41;86.09
41254;BME280;26987;59.928;30.306;2022-08-30T12:49:25;101099.75;;;14.38;86.52
41254;BME280;26987;59.928;30.306;2022-08-30T12:51:55;101098.94;;;14.38;86.47
41254;BME280;26987;59.928;30.306;2022-08-30T12:54:25;101098.09;;;14.37;86.43
41254;BME280;26987;59.928;30.306;2022-08-30T12:56:58;101109.94;;;14.36;86.25
41254;BME280;26987;59.928;30.306;2022-08-30T12:59:47;101124.25;;;14.37;86.68
41254;BME280;26987;59.928;30.306;2022-08-30T13:02:19;101125.59;;;14.28;87.00
41254;BME280;26987;59.928;30.306;2022-08-30T13:04:48;101107.22;;;14.18;88.92